Time;durP1;ratioP1;P1;durP2;ratioP2;P2;SDS_P1;SDS_P2;PMS_P1;PMS_P2;Temp;Humidity;BMP_temperature;BMP_pressure;BME280_temperature;BME280_humidity;BME280_pressure;Samples;Min_cycle;Max_cycle;Signal;HPM_P1;HPM_P2
2021/04/30 00:00:51;;;;;;;16.45;8.30;;;8.20;87.90;;;;;;5073203;28;20443;-75
2021/04/30 00:03:18;;;;;;;16.73;8.52;;;8.20;87.90;;;;;;5073109;28;20573;-74
2021/04/30 00:05:43;;;;;;;16.85;8.48;;;8.20;88.00;;;;;;5073183;28;20440;-75
2021/04/30 00:08:09;;;;;;;16.92;8.57;;;8.20;87.90;;;;;;5071548;28;20119;-74
2021/04/30 00:10:35;;;;;;;17.52;8.18;;;8.20;88.00;;;;;;5073380;28;20052;-74
2021/04/30 00:13:01;;;;;;;21.05;8.60;;;8.20;88.00;;;;;;5071720;28;20021;-75
2021/04/30 00:15:26;;;;;;;18.20;8.18;;;8.10;88.00;;;;;;5072912;28;20472;-75
2021/04/30 00:17:52;;;;;;;15.45;7.82;;;8.20;88.00;;;;;;5072892;28;20407;-75
2021/04/30 00:20:18;;;;;;;18.75;8.00;;;8.20;88.00;;;;;;5071579;28;20032;-74
2021/04/30 00:22:43;;;;;;;13.45;7.45;;;8.20;88.00;;;;;;5072762;28;20093;-75
2021/04/30 00:25:10;;;;;;;15.38;7.75;;;8.20;88.00;;;;;;5071496;28;20032;-74
2021/04/30 00:27:36;;;;;;;14.38;7.80;;;8.20;88.10;;;;;;5071396;28;20033;-74
2021/04/30 00:30:02;;;;;;;17.45;7.40;;;8.20;88.00;;;;;;5072879;28;20040;-75
2021/04/30 00:32:28;;;;;;;14.75;7.50;;;8.20;87.90;;;;;;5071080;28;20476;-75
2021/04/30 00:34:54;;;;;;;14.80;7.90;;;8.30;88.00;;;;;;5072879;28;20042;-75
2021/04/30 00:37:19;;;;;;;11.32;7.13;;;8.30;88.00;;;;;;5073183;28;20032;-75
2021/04/30 00:39:45;;;;;;;16.08;8.25;;;8.30;87.90;;;;;;5071348;28;20035;-75
2021/04/30 00:42:14;;;;;;;14.25;7.50;;;8.30;87.80;;;;;;5072670;28;20043;-75
2021/04/30 00:44:43;;;;;;;15.05;7.80;;;8.30;87.90;;;;;;5072560;28;20021;-74
2021/04/30 00:47:28;;;;;;;15.30;8.30;;;8.30;87.80;;;;;;5071323;28;20057;-75
2021/04/30 00:49:53;;;;;;;16.58;7.80;;;8.30;87.90;;;;;;5073113;28;20488;-75
2021/04/30 00:52:19;;;;;;;14.27;7.75;;;8.30;87.80;;;;;;5071344;28;20025;-76
2021/04/30 00:54:48;;;;;;;14.82;7.90;;;8.40;87.90;;;;;;5072480;28;20024;-75
2021/04/30 00:57:14;;;;;;;13.93;7.35;;;8.40;87.80;;;;;;5072573;28;20078;-75
2021/04/30 00:59:40;;;;;;;13.75;7.80;;;8.40;87.80;;;;;;5072559;28;20039;-76
2021/04/30 01:02:06;;;;;;;15.07;7.53;;;8.40;87.70;;;;;;5073008;28;20082;-76
2021/04/30 01:04:32;;;;;;;16.35;7.68;;;8.40;87.70;;;;;;5072488;28;20029;-76
2021/04/30 01:06:58;;;;;;;11.80;7.53;;;8.40;87.60;;;;;;5070976;28;20394;-75
2021/04/30 01:09:23;;;;;;;15.73;8.30;;;8.50;87.70;;;;;;5071044;28;20422;-75
2021/04/30 01:11:50;;;;;;;17.35;7.47;;;8.40;87.70;;;;;;5071451;28;20028;-75
2021/04/30 01:14:16;;;;;;;17.38;7.97;;;8.40;87.60;;;;;;5072420;28;20047;-75
2021/04/30 01:16:42;;;;;;;19.90;7.97;;;8.50;87.80;;;;;;5071046;28;20029;-75
2021/04/30 01:19:07;;;;;;;15.18;8.00;;;8.50;87.60;;;;;;5072832;28;20060;-75
2021/04/30 01:21:33;;;;;;;17.77;8.05;;;8.50;87.60;;;;;;5071011;28;20090;-75
2021/04/30 01:23:59;;;;;;;14.65;7.82;;;8.50;87.60;;;;;;5072927;28;20021;-75
2021/04/30 01:26:24;;;;;;;18.58;7.95;;;8.50;87.60;;;;;;5072351;28;20031;-75
2021/04/30 01:28:50;;;;;;;15.98;8.32;;;8.60;87.60;;;;;;5070966;28;20489;-75
2021/04/30 01:31:17;;;;;;;11.95;7.68;;;8.60;87.50;;;;;;5070937;28;20498;-75
2021/04/30 01:33:43;;;;;;;17.23;7.85;;;8.60;87.50;;;;;;5070853;28;20039;-75
2021/04/30 01:36:09;;;;;;;14.05;8.23;;;8.60;87.40;;;;;;5072350;28;20028;-75
2021/04/30 01:38:34;;;;;;;13.60;7.65;;;8.60;87.40;;;;;;5072166;28;20028;-75
2021/04/30 01:41:01;;;;;;;16.05;8.13;;;8.60;87.30;;;;;;5072410;28;20025;-75
2021/04/30 01:43:27;;;;;;;15.75;8.25;;;8.60;87.30;;;;;;5072156;28;20153;-75
2021/04/30 01:46:00;;;;;;;17.85;8.10;;;8.60;87.30;;;;;;5075892;28;20039;-75
2021/04/30 01:48:28;;;;;;;17.65;8.73;;;8.60;87.20;;;;;;5074335;28;20035;-75
2021/04/30 01:50:56;;;;;;;16.58;8.00;;;8.60;87.30;;;;;;5074482;28;20078;-75
2021/04/30 01:53:24;;;;;;;19.92;8.68;;;8.60;87.30;;;;;;5074417;28;20059;-75
2021/04/30 01:55:53;;;;;;;17.92;9.35;;;8.60;87.30;;;;;;5074309;28;20025;-75
2021/04/30 01:58:19;;;;;;;20.00;8.57;;;8.60;87.40;;;;;;5074249;28;20033;-75
2021/04/30 02:00:46;;;;;;;19.17;9.35;;;8.60;87.40;;;;;;5074197;28;20048;-75
2021/04/30 02:03:12;;;;;;;21.85;8.73;;;8.70;87.40;;;;;;5074089;28;20060;-75
2021/04/30 02:05:39;;;;;;;16.05;8.20;;;8.70;87.40;;;;;;5073936;28;20027;-75
2021/04/30 02:08:07;;;;;;;15.60;9.07;;;8.70;87.40;;;;;;5073811;28;20036;-75
2021/04/30 02:10:33;;;;;;;14.93;8.45;;;8.70;87.40;;;;;;5073923;28;20016;-75
2021/04/30 02:12:59;;;;;;;18.05;8.77;;;8.70;87.40;;;;;;5073852;28;20055;-75
2021/04/30 02:15:31;;;;;;;19.23;8.68;;;8.70;87.40;;;;;;5073855;28;20162;-75
2021/04/30 02:17:57;;;;;;;16.30;9.25;;;8.70;87.30;;;;;;5075300;28;20032;-75
2021/04/30 02:20:24;;;;;;;16.38;8.77;;;8.70;87.20;;;;;;5073719;28;20154;-75
2021/04/30 02:22:50;;;;;;;17.20;9.05;;;8.80;87.30;;;;;;5073703;28;20040;-75
2021/04/30 02:25:18;;;;;;;15.63;8.45;;;8.80;87.30;;;;;;5073769;28;20133;-75
2021/04/30 02:27:44;;;;;;;21.63;9.43;;;8.80;87.20;;;;;;5074957;28;20020;-75
2021/04/30 02:30:12;;;;;;;16.85;8.90;;;8.80;87.20;;;;;;5073623;28;20035;-75
2021/04/30 02:32:38;;;;;;;21.88;9.00;;;8.80;87.30;;;;;;5074912;28;20074;-75
2021/04/30 02:35:07;;;;;;;14.48;8.00;;;8.80;87.30;;;;;;5070657;28;20040;-75
2021/04/30 02:37:33;;;;;;;18.48;8.65;;;8.80;87.20;;;;;;5073444;28;20029;-76
2021/04/30 02:39:59;;;;;;;22.60;9.23;;;8.80;87.20;;;;;;5074788;28;20028;-73
2021/04/30 02:42:25;;;;;;;15.85;8.45;;;8.80;87.20;;;;;;5073343;28;20166;-74
2021/04/30 02:44:50;;;;;;;16.08;8.27;;;8.90;87.20;;;;;;5073199;28;20093;-74
2021/04/30 02:47:16;;;;;;;18.27;8.88;;;8.80;87.10;;;;;;5074580;28;20028;-75
2021/04/30 02:49:46;;;;;;;17.42;8.95;;;8.90;87.20;;;;;;5073440;28;20464;-75
2021/04/30 02:52:16;;;;;;;15.50;8.18;;;8.80;87.10;;;;;;5073187;28;20123;-76
2021/04/30 02:54:42;;;;;;;18.75;9.68;;;8.90;87.80;;;;;;5072967;28;20058;-75
2021/04/30 02:57:08;;;;;;;18.48;8.65;;;8.90;87.10;;;;;;5074022;28;20510;-75
2021/04/30 02:59:34;;;;;;;15.10;8.60;;;8.90;87.10;;;;;;5074375;28;20029;-76
2021/04/30 03:02:01;;;;;;;14.50;8.90;;;8.90;87.10;;;;;;5072941;28;20028;-76
2021/04/30 03:04:27;;;;;;;16.52;8.27;;;8.90;87.10;;;;;;5074250;28;20017;-75
2021/04/30 03:06:53;;;;;;;16.65;8.73;;;8.90;87.10;;;;;;5074485;28;20032;-76
2021/04/30 03:09:18;;;;;;;20.48;8.63;;;9.00;87.20;;;;;;5072776;28;20025;-76
2021/04/30 03:11:44;;;;;;;17.20;9.07;;;9.00;87.10;;;;;;5072815;28;20031;-76
2021/04/30 03:14:10;;;;;;;16.17;8.43;;;9.00;87.00;;;;;;5072774;28;20029;-75
2021/04/30 03:16:36;;;;;;;16.80;9.20;;;9.00;87.00;;;;;;5074013;28;20174;-73
2021/04/30 03:19:01;;;;;;;15.18;8.65;;;9.00;87.00;;;;;;5073940;28;20025;-73
2021/04/30 03:21:27;;;;;;;18.85;8.77;;;9.10;87.00;;;;;;5072446;28;20032;-74
2021/04/30 03:23:53;;;;;;;19.05;9.32;;;9.10;87.00;;;;;;5074089;28;20027;-74
2021/04/30 03:26:19;;;;;;;19.60;9.18;;;9.00;87.00;;;;;;5073882;28;20051;-74
2021/04/30 03:28:44;;;;;;;16.95;9.23;;;9.10;87.00;;;;;;5073665;28;20062;-74
2021/04/30 03:31:10;;;;;;;19.05;8.77;;;9.00;86.90;;;;;;5072482;28;20039;-74
2021/04/30 03:33:37;;;;;;;13.20;8.50;;;9.00;87.00;;;;;;5072395;28;20031;-75
2021/04/30 03:36:03;;;;;;;19.25;9.18;;;9.00;86.90;;;;;;5073623;28;20078;-74
2021/04/30 03:38:29;;;;;;;20.13;9.63;;;9.00;86.90;;;;;;5072277;28;20025;-74
2021/04/30 03:40:54;;;;;;;17.85;9.68;;;9.00;86.90;;;;;;5072358;28;20025;-75
2021/04/30 03:43:20;;;;;;;20.90;9.73;;;9.00;86.90;;;;;;5072154;28;20028;-74
2021/04/30 03:45:46;;;;;;;15.68;9.20;;;9.00;86.90;;;;;;5072130;28;20029;-75
2021/04/30 03:48:11;;;;;;;20.67;9.40;;;9.00;86.80;;;;;;5072170;28;20020;-74
2021/04/30 03:50:37;;;;;;;18.85;9.40;;;9.00;86.80;;;;;;5072023;28;20031;-75
2021/04/30 03:53:02;;;;;;;19.33;9.30;;;9.00;86.80;;;;;;5071946;28;20059;-75
2021/04/30 03:55:28;;;;;;;16.90;8.70;;;8.90;86.70;;;;;;5072032;28;20119;-75
2021/04/30 03:57:54;;;;;;;16.02;9.57;;;8.90;86.70;;;;;;5071925;28;20052;-75
2021/04/30 04:00:20;;;;;;;18.65;9.40;;;8.90;86.80;;;;;;5073328;28;20040;-76
2021/04/30 04:02:47;;;;;;;16.00;9.25;;;8.90;86.70;;;;;;5071739;28;20060;-75
2021/04/30 04:05:13;;;;;;;18.58;9.35;;;8.90;86.80;;;;;;5073014;28;20020;-75
2021/04/30 04:07:40;;;;;;;19.08;9.95;;;8.90;86.80;;;;;;5070941;28;20059;-75
2021/04/30 04:10:06;;;;;;;14.30;8.60;;;8.90;86.80;;;;;;5071683;28;20055;-76
2021/04/30 04:12:32;;;;;;;16.60;9.52;;;8.90;86.80;;;;;;5072929;28;20488;-75
2021/04/30 04:14:58;;;;;;;15.27;9.75;;;8.90;86.90;;;;;;5072882;28;20025;-75
2021/04/30 04:17:24;;;;;;;13.65;9.48;;;8.90;86.90;;;;;;5071622;28;20146;-75
2021/04/30 04:19:50;;;;;;;16.58;9.60;;;8.90;86.90;;;;;;5071672;28;20031;-75
2021/04/30 04:22:16;;;;;;;18.45;9.77;;;8.90;86.80;;;;;;5071437;28;20033;-75
2021/04/30 04:24:42;;;;;;;19.42;10.40;;;8.90;86.90;;;;;;5072685;28;20028;-75
2021/04/30 04:27:09;;;;;;;17.13;10.35;;;8.80;86.90;;;;;;5071454;28;20498;-75
2021/04/30 04:29:36;;;;;;;17.45;9.65;;;8.90;86.90;;;;;;5072783;28;20477;-75
2021/04/30 04:32:05;;;;;;;16.23;9.80;;;8.90;86.90;;;;;;5071315;28;20029;-76
2021/04/30 04:34:31;;;;;;;17.92;10.48;;;8.90;87.00;;;;;;5071299;28;20033;-74
2021/04/30 04:36:57;;;;;;;17.75;10.20;;;8.90;86.90;;;;;;5072544;28;20541;-75
2021/04/30 04:39:28;;;;;;;17.60;10.13;;;8.90;86.80;;;;;;5072549;28;20059;-75
2021/04/30 04:41:54;;;;;;;17.08;10.30;;;8.90;86.80;;;;;;5073023;28;20031;-75
2021/04/30 04:44:20;;;;;;;21.77;10.60;;;8.80;86.80;;;;;;5072709;28;20472;-75
2021/04/30 04:46:45;;;;;;;17.45;10.07;;;8.90;86.90;;;;;;5071072;28;20036;-75
2021/04/30 04:49:11;;;;;;;17.25;9.93;;;8.90;86.90;;;;;;5072586;28;20021;-75
2021/04/30 04:51:37;;;;;;;19.70;10.70;;;8.90;86.80;;;;;;5071139;28;20035;-75
2021/04/30 04:54:03;;;;;;;15.82;11.13;;;8.90;86.80;;;;;;5072448;28;20025;-75
2021/04/30 04:56:29;;;;;;;17.10;10.73;;;9.00;86.80;;;;;;5071053;28;20020;-75
2021/04/30 04:58:55;;;;;;;17.83;10.68;;;9.00;86.80;;;;;;5072458;28;20040;-75
2021/04/30 05:01:23;;;;;;;19.95;10.95;;;9.00;86.80;;;;;;5072245;28;20425;-75
2021/04/30 05:03:50;;;;;;;19.10;11.15;;;9.10;86.80;;;;;;5072676;28;20040;-75
2021/04/30 05:06:15;;;;;;;22.90;11.20;;;9.10;86.70;;;;;;5070987;28;20372;-74
2021/04/30 05:08:41;;;;;;;18.70;10.77;;;9.10;86.70;;;;;;5070685;28;20039;-74
2021/04/30 05:11:07;;;;;;;17.73;11.43;;;9.10;86.60;;;;;;5070899;28;20025;-75
2021/04/30 05:13:34;;;;;;;16.38;11.07;;;9.10;86.60;;;;;;5072061;28;20033;-75
2021/04/30 05:16:00;;;;;;;21.55;11.23;;;9.10;86.60;;;;;;5072661;28;20467;-75
2021/04/30 05:18:27;;;;;;;17.30;10.55;;;9.10;86.60;;;;;;5072349;28;20032;-75
2021/04/30 05:20:55;;;;;;;21.08;12.52;;;9.10;86.50;;;;;;5076032;28;20103;-75
2021/04/30 05:23:22;;;;;;;20.55;11.57;;;9.10;86.60;;;;;;5074635;28;20480;-74
2021/04/30 05:25:49;;;;;;;20.88;11.80;;;9.20;86.60;;;;;;5074633;28;20021;-75
2021/04/30 05:28:15;;;;;;;23.52;12.48;;;9.20;86.60;;;;;;5075874;28;20032;-75
2021/04/30 05:30:41;;;;;;;21.85;12.00;;;9.30;86.50;;;;;;5075861;28;20111;-76
2021/04/30 05:33:07;;;;;;;19.73;11.88;;;9.30;86.40;;;;;;5076199;28;20067;-75
2021/04/30 05:35:33;;;;;;;21.13;11.70;;;9.30;86.40;;;;;;5075810;28;20559;-75
2021/04/30 05:37:59;;;;;;;20.67;11.55;;;9.30;86.40;;;;;;5074532;28;20373;-75
2021/04/30 05:40:25;;;;;;;21.15;12.32;;;9.30;86.30;;;;;;5075600;28;20048;-75
2021/04/30 05:42:51;;;;;;;19.17;11.40;;;9.30;86.30;;;;;;5075812;28;20032;-75
2021/04/30 05:45:17;;;;;;;25.00;12.02;;;9.30;86.30;;;;;;5075682;28;20063;-75
2021/04/30 05:47:43;;;;;;;19.83;12.43;;;9.30;86.30;;;;;;5075640;28;20028;-75
2021/04/30 05:50:10;;;;;;;20.65;12.25;;;9.30;86.30;;;;;;5075597;28;20573;-75
2021/04/30 05:52:36;;;;;;;20.00;11.43;;;9.40;86.30;;;;;;5074130;28;20075;-75
2021/04/30 05:55:02;;;;;;;28.02;13.18;;;9.40;86.30;;;;;;5075711;28;20060;-75
2021/04/30 05:57:28;;;;;;;22.65;12.80;;;9.30;86.20;;;;;;5074139;28;20032;-75
2021/04/30 05:59:53;;;;;;;22.58;12.05;;;9.40;86.30;;;;;;5074138;28;20472;-75
2021/04/30 06:02:19;;;;;;;23.35;12.10;;;9.40;86.30;;;;;;5073903;28;20020;-75
2021/04/30 06:04:45;;;;;;;20.13;11.63;;;9.40;86.20;;;;;;5073972;28;20021;-75
2021/04/30 06:07:10;;;;;;;22.25;12.15;;;9.50;86.10;;;;;;5074997;28;20048;-75
2021/04/30 06:09:36;;;;;;;20.13;11.80;;;9.60;86.00;;;;;;5073820;28;20361;-75
2021/04/30 06:12:01;;;;;;;21.30;11.65;;;9.60;86.00;;;;;;5074379;28;20501;-75
2021/04/30 06:14:30;;;;;;;23.20;12.73;;;9.70;86.00;;;;;;5075001;28;20115;-75
2021/04/30 06:17:03;;;;;;;17.85;12.88;;;9.70;85.90;;;;;;5075198;28;20032;-75
2021/04/30 06:19:30;;;;;;;17.27;11.70;;;9.60;85.70;;;;;;5073597;28;20025;-75
2021/04/30 06:21:55;;;;;;;18.92;12.35;;;9.70;85.90;;;;;;5075026;28;20123;-74
2021/04/30 06:24:22;;;;;;;21.90;13.10;;;9.70;85.90;;;;;;5075409;28;20052;-74
2021/04/30 06:26:47;;;;;;;19.50;12.48;;;9.70;85.80;;;;;;5073568;28;20020;-74
2021/04/30 06:29:13;;;;;;;19.40;12.27;;;9.70;85.90;;;;;;5074500;28;20023;-74
2021/04/30 06:31:39;;;;;;;17.23;12.23;;;9.70;85.90;;;;;;5074886;28;20029;-74
2021/04/30 06:34:05;;;;;;;22.27;13.23;;;9.70;85.90;;;;;;5074669;28;20074;-75
2021/04/30 06:36:32;;;;;;;26.70;12.90;;;9.70;85.80;;;;;;5074696;28;20029;-74
2021/04/30 06:38:59;;;;;;;19.08;12.77;;;9.70;85.80;;;;;;5073284;28;20115;-73
2021/04/30 06:41:56;;;;;;;20.98;12.77;;;9.70;85.70;;;;;;5074652;28;20472;-73
2021/04/30 06:44:22;;;;;;;20.17;12.43;;;9.70;85.70;;;;;;5074686;28;20467;-73
2021/04/30 06:46:48;;;;;;;19.48;13.45;;;9.70;85.70;;;;;;5075172;28;20052;-73
2021/04/30 06:49:14;;;;;;;21.27;13.50;;;9.80;85.70;;;;;;5073212;28;20028;-73
2021/04/30 06:51:40;;;;;;;20.30;12.52;;;9.80;85.60;;;;;;5074635;28;20043;-73
2021/04/30 06:54:05;;;;;;;23.05;13.43;;;9.80;85.60;;;;;;5074759;28;20479;-73
2021/04/30 06:56:31;;;;;;;23.98;13.15;;;9.80;85.50;;;;;;5074755;28;20025;-73
2021/04/30 06:58:58;;;;;;;18.63;13.13;;;9.80;85.50;;;;;;5072939;28;20501;-73
2021/04/30 07:01:24;;;;;;;21.73;13.35;;;9.80;85.50;;;;;;5072803;28;20388;-73
2021/04/30 07:03:50;;;;;;;19.98;13.30;;;9.90;85.50;;;;;;5072746;28;20036;-73
2021/04/30 07:06:18;;;;;;;22.05;13.27;;;9.90;85.40;;;;;;5072763;28;20115;-73
2021/04/30 07:08:44;;;;;;;21.23;13.10;;;9.90;85.30;;;;;;5072436;28;20033;-73
2021/04/30 07:11:10;;;;;;;22.85;13.65;;;10.00;85.30;;;;;;5072631;28;20025;-73
2021/04/30 07:13:36;;;;;;;21.33;12.65;;;10.10;85.10;;;;;;5072800;28;20082;-74
2021/04/30 07:16:03;;;;;;;24.05;13.18;;;10.10;84.90;;;;;;5072903;28;20025;-73
2021/04/30 07:18:28;;;;;;;18.55;12.60;;;10.20;84.80;;;;;;5073803;28;20441;-74
2021/04/30 07:20:54;;;;;;;19.35;12.55;;;10.30;84.60;;;;;;5072234;28;20081;-74
2021/04/30 07:23:20;;;;;;;18.58;13.43;;;10.30;84.50;;;;;;5072328;28;20414;-73
2021/04/30 07:25:46;;;;;;;20.60;13.52;;;10.40;84.40;;;;;;5073670;28;20111;-75
2021/04/30 07:28:14;;;;;;;21.25;13.40;;;10.40;84.20;;;;;;5073678;28;20080;-73
2021/04/30 07:34:02;;;;;;;20.23;14.20;;;10.50;84.10;;;;;;5073511;28;20385;-73
2021/04/30 07:36:27;;;;;;;18.85;13.60;;;10.60;84.10;;;;;;5072126;28;20036;-74
2021/04/30 07:38:53;;;;;;;19.92;14.10;;;10.70;84.10;;;;;;5072225;28;20564;-73
2021/04/30 07:41:19;;;;;;;22.35;14.45;;;10.80;83.90;;;;;;5071264;28;20127;-73
2021/04/30 07:43:44;;;;;;;20.98;14.55;;;10.80;83.70;;;;;;5073174;28;20033;-73
2021/04/30 07:46:10;;;;;;;19.92;13.93;;;10.80;83.50;;;;;;5072057;28;20119;-73
2021/04/30 07:48:36;;;;;;;21.15;14.07;;;10.90;83.50;;;;;;5073217;28;20025;-73
2021/04/30 07:51:05;;;;;;;17.55;13.30;;;10.90;83.50;;;;;;5073210;28;20427;-73
2021/04/30 07:53:32;;;;;;;21.63;14.27;;;11.00;83.40;;;;;;5073619;28;20033;-74
2021/04/30 07:55:58;;;;;;;21.08;13.40;;;11.00;83.30;;;;;;5071894;28;20033;-74
2021/04/30 07:58:26;;;;;;;20.50;13.75;;;11.10;83.20;;;;;;5072074;28;20085;-74
2021/04/30 08:00:57;;;;;;;19.65;13.80;;;11.20;83.10;;;;;;5071710;28;20051;-74
2021/04/30 08:03:23;;;;;;;22.52;13.90;;;11.20;82.90;;;;;;5071738;28;20365;-74
2021/04/30 08:05:50;;;;;;;19.85;13.88;;;11.20;82.80;;;;;;5072969;28;20464;-73
2021/04/30 08:08:16;;;;;;;19.33;14.30;;;11.30;82.70;;;;;;5071575;28;20066;-72
2021/04/30 08:10:42;;;;;;;22.83;14.82;;;11.30;82.50;;;;;;5071625;28;20828;-74
2021/04/30 08:13:08;;;;;;;21.88;13.95;;;11.30;82.50;;;;;;5071805;28;20034;-74
2021/04/30 08:15:34;;;;;;;19.35;13.43;;;11.30;82.50;;;;;;5071548;28;20480;-75
2021/04/30 08:17:59;;;;;;;24.52;14.38;;;11.30;82.50;;;;;;5073417;28;20517;-74
2021/04/30 08:20:25;;;;;;;19.55;13.25;;;11.30;82.60;;;;;;5072934;28;20423;-74
2021/04/30 08:22:51;;;;;;;20.33;13.50;;;11.20;82.50;;;;;;5073166;28;20028;-74
2021/04/30 08:25:16;;;;;;;22.67;13.35;;;11.20;82.30;;;;;;5071608;28;20025;-74
2021/04/30 08:27:42;;;;;;;20.38;12.88;;;11.10;82.30;;;;;;5072849;28;20048;-74
2021/04/30 08:30:08;;;;;;;19.52;13.38;;;11.10;82.50;;;;;;5072712;28;20032;-74
2021/04/30 08:32:34;;;;;;;20.67;13.02;;;11.10;82.60;;;;;;5072752;28;20028;-74
2021/04/30 08:35:00;;;;;;;18.88;13.02;;;11.00;82.60;;;;;;5072769;28;20032;-74
2021/04/30 08:37:25;;;;;;;16.00;13.20;;;11.00;82.60;;;;;;5073228;28;20533;-74
2021/04/30 08:39:52;;;;;;;17.80;13.63;;;11.00;82.50;;;;;;5072782;28;20060;-74
2021/04/30 08:42:18;;;;;;;19.27;13.30;;;11.00;82.40;;;;;;5072625;28;20031;-74
2021/04/30 08:44:44;;;;;;;17.35;13.52;;;11.00;82.50;;;;;;5072663;28;20028;-74
2021/04/30 08:47:16;;;;;;;16.35;12.68;;;11.00;82.50;;;;;;5072841;28;20063;-74
2021/04/30 08:49:41;;;;;;;17.23;13.43;;;11.00;82.40;;;;;;5071232;28;20021;-75
2021/04/30 08:52:09;;;;;;;18.65;13.18;;;11.00;82.40;;;;;;5073077;28;20425;-74
2021/04/30 08:54:36;;;;;;;20.38;13.73;;;11.10;82.40;;;;;;5076215;28;20033;-74
2021/04/30 08:57:05;;;;;;;20.35;13.00;;;11.20;82.30;;;;;;5075507;28;20486;-74
2021/04/30 08:59:31;;;;;;;16.90;12.75;;;11.20;82.10;;;;;;5075255;28;20422;-74
2021/04/30 09:01:58;;;;;;;19.88;13.18;;;11.30;82.00;;;;;;5075061;28;20025;-74
2021/04/30 09:04:24;;;;;;;16.85;13.57;;;11.40;81.80;;;;;;5076468;28;20029;-74
2021/04/30 09:06:50;;;;;;;22.75;14.10;;;11.40;81.50;;;;;;5075232;28;20016;-74
2021/04/30 09:09:20;;;;;;;17.70;12.88;;;11.60;81.30;;;;;;5074911;28;20139;-74
2021/04/30 09:11:48;;;;;;;15.60;12.60;;;11.70;81.10;;;;;;5076426;28;20044;-74
2021/04/30 09:14:30;;;;;;;21.15;13.82;;;11.70;80.90;;;;;;5076407;28;20024;-74
2021/04/30 09:17:08;;;;;;;18.90;13.02;;;11.80;80.70;;;;;;5075091;28;20036;-74
2021/04/30 09:20:04;;;;;;;27.83;18.52;;;12.00;80.40;;;;;;5074901;28;20034;-74
2021/04/30 09:22:34;;;;;;;19.83;14.57;;;12.00;80.10;;;;;;5073672;28;20519;-74
2021/04/30 09:25:03;;;;;;;21.88;13.77;;;12.10;79.90;;;;;;5074956;28;20116;-74
2021/04/30 09:27:31;;;;;;;21.13;14.50;;;12.30;79.60;;;;;;5076202;28;20052;-73
2021/04/30 09:30:21;;;;;;;15.75;12.23;;;12.30;79.40;;;;;;5074747;28;20484;-74
2021/04/30 09:33:15;;;;;;;17.83;13.02;;;12.40;79.10;;;;;;5074633;28;20460;-73
2021/04/30 09:35:51;;;;;;;17.65;12.35;;;12.40;78.90;;;;;;5075930;28;20024;-74
2021/04/30 09:38:28;;;;;;;17.27;13.13;;;12.50;78.90;;;;;;5074793;28;20090;-74
2021/04/30 09:41:12;;;;;;;19.35;13.43;;;12.50;78.60;;;;;;5076435;28;20160;-75
2021/04/30 09:43:44;;;;;;;18.25;13.50;;;12.70;78.20;;;;;;5074562;28;20060;-75
2021/04/30 09:46:34;;;;;;;17.25;13.43;;;12.80;78.00;;;;;;5074525;28;20098;-74
2021/04/30 09:49:04;;;;;;;18.92;13.40;;;12.90;77.70;;;;;;5074316;28;20027;-73
2021/04/30 09:51:44;;;;;;;18.15;13.90;;;13.00;77.60;;;;;;5075563;28;20016;-72
2021/04/30 09:54:26;;;;;;;19.88;12.60;;;13.00;77.20;;;;;;5075489;28;20103;-74
2021/04/30 09:57:05;;;;;;;18.23;13.27;;;13.00;77.00;;;;;;5074213;28;20569;-74
2021/04/30 09:59:34;;;;;;;18.58;11.82;;;12.90;76.70;;;;;;5074202;28;20039;-74
2021/04/30 10:02:17;;;;;;;20.83;14.25;;;12.70;76.60;;;;;;5074156;28;20063;-74
2021/04/30 10:04:45;;;;;;;21.65;15.57;;;12.50;76.80;;;;;;5075120;28;20047;-74
2021/04/30 10:07:13;;;;;;;21.38;16.00;;;12.20;77.30;;;;;;5073866;28;20023;-74
2021/04/30 10:09:43;;;;;;;19.10;14.45;;;12.10;77.60;;;;;;5074054;28;20028;-73
2021/04/30 10:12:26;;;;;;;19.42;14.88;;;12.00;77.80;;;;;;5074068;28;20432;-74
2021/04/30 10:14:51;;;;;;;20.40;13.93;;;11.90;78.00;;;;;;5074045;28;20051;-73
2021/04/30 10:17:17;;;;;;;19.67;14.23;;;11.80;78.10;;;;;;5075668;28;20033;-73
2021/04/30 10:19:45;;;;;;;18.42;13.98;;;11.80;78.40;;;;;;5075195;28;20028;-74
2021/04/30 10:22:16;;;;;;;20.67;14.63;;;11.80;78.60;;;;;;5075157;28;20051;-73
2021/04/30 10:24:47;;;;;;;19.60;14.32;;;11.80;78.70;;;;;;5075030;28;20021;-73
2021/04/30 10:27:16;;;;;;;19.02;14.10;;;11.90;78.70;;;;;;5073724;28;20044;-74
2021/04/30 10:29:51;;;;;;;20.73;14.00;;;12.00;78.50;;;;;;5075201;28;20024;-74
2021/04/30 10:32:20;;;;;;;20.83;13.02;;;12.10;78.30;;;;;;5073851;28;20043;-73
2021/04/30 10:34:48;;;;;;;16.25;12.90;;;12.20;78.20;;;;;;5075451;28;20444;-74
2021/04/30 10:37:25;;;;;;;17.50;13.27;;;12.30;78.20;;;;;;5075168;28;20037;-73
2021/04/30 10:39:59;;;;;;;15.43;13.50;;;12.30;78.10;;;;;;5073881;28;20032;-74
2021/04/30 10:42:39;;;;;;;19.27;13.68;;;12.40;78.00;;;;;;5074906;28;20111;-73
2021/04/30 10:45:06;;;;;;;15.73;12.95;;;12.40;78.10;;;;;;5074993;28;20051;-73
2021/04/30 10:47:32;;;;;;;16.58;13.13;;;12.30;78.00;;;;;;5073534;28;20039;-74
2021/04/30 10:50:16;;;;;;;16.10;12.82;;;12.30;77.90;;;;;;5073445;28;20020;-74
2021/04/30 10:52:42;;;;;;;16.35;12.63;;;12.10;78.00;;;;;;5073644;28;20391;-75
2021/04/30 10:55:11;;;;;;;16.10;13.43;;;11.90;78.20;;;;;;5073789;28;20178;-75
2021/04/30 10:57:49;;;;;;;16.90;14.38;;;11.80;78.60;;;;;;5074471;28;20035;-75
2021/04/30 11:00:15;;;;;;;18.35;14.25;;;11.60;79.00;;;;;;5073383;28;20047;-75
2021/04/30 11:02:41;;;;;;;19.33;13.93;;;11.60;79.40;;;;;;5073180;28;20036;-76
2021/04/30 11:05:57;;;;;;;16.55;12.63;;;11.50;79.70;;;;;;5072958;28;20025;-74
2021/04/30 11:08:45;;;;;;;16.50;11.85;;;11.50;79.90;;;;;;5072559;28;20045;-74
2021/04/30 11:11:11;;;;;;;13.55;11.10;;;11.50;80.00;;;;;;5072825;28;20021;-74
2021/04/30 11:13:36;;;;;;;14.40;10.95;;;11.40;80.20;;;;;;5074146;28;20115;-73
2021/04/30 11:16:02;;;;;;;14.43;11.35;;;11.50;80.80;;;;;;5073940;28;20361;-74
2021/04/30 11:18:30;;;;;;;14.52;10.85;;;11.60;80.10;;;;;;5072691;28;20028;-74
2021/04/30 11:21:12;;;;;;;15.15;12.88;;;11.70;80.10;;;;;;5073936;28;20035;-74
2021/04/30 11:23:42;;;;;;;16.05;13.30;;;11.80;80.10;;;;;;5073924;28;20341;-74
2021/04/30 11:26:13;;;;;;;17.77;14.25;;;12.00;79.90;;;;;;5072641;28;20021;-74
2021/04/30 11:28:41;;;;;;;17.38;13.70;;;12.10;79.70;;;;;;5073855;28;20476;-75
2021/04/30 11:31:08;;;;;;;16.83;14.15;;;12.20;79.70;;;;;;5073839;28;20025;-74
2021/04/30 11:33:36;;;;;;;17.95;14.60;;;12.30;79.60;;;;;;5072502;28;20025;-75
2021/04/30 11:36:03;;;;;;;19.02;14.57;;;12.30;79.50;;;;;;5073856;28;20034;-75
2021/04/30 11:38:40;;;;;;;19.80;15.45;;;12.40;79.50;;;;;;5072274;28;20033;-74
2021/04/30 11:41:07;;;;;;;19.00;14.27;;;12.40;79.40;;;;;;5073577;28;20037;-74
2021/04/30 11:43:34;;;;;;;19.13;15.27;;;12.40;79.10;;;;;;5072195;28;20396;-74
2021/04/30 11:46:01;;;;;;;22.08;16.15;;;12.50;78.90;;;;;;5073404;28;20035;-74
2021/04/30 11:48:28;;;;;;;17.08;13.65;;;12.60;78.70;;;;;;5073490;28;20032;-75
2021/04/30 11:51:04;;;;;;;18.67;15.15;;;12.70;78.40;;;;;;5073384;28;20472;-75
2021/04/30 11:53:32;;;;;;;18.00;14.48;;;12.80;78.10;;;;;;5073377;28;20039;-75
2021/04/30 11:55:58;;;;;;;18.25;14.40;;;12.90;77.70;;;;;;5073597;28;20145;-75
2021/04/30 11:58:38;;;;;;;16.95;13.38;;;13.00;77.60;;;;;;5073204;28;20040;-74
2021/04/30 12:01:05;;;;;;;16.45;14.15;;;13.00;77.60;;;;;;5071740;28;20029;-74
2021/04/30 12:03:44;;;;;;;19.35;13.68;;;13.10;77.50;;;;;;5071831;28;20098;-74
2021/04/30 12:06:14;;;;;;;16.70;13.15;;;13.30;77.30;;;;;;5071853;28;20035;-74
2021/04/30 12:08:41;;;;;;;15.23;13.48;;;13.30;77.00;;;;;;5073095;28;20040;-75
2021/04/30 12:11:07;;;;;;;17.83;14.00;;;13.30;76.80;;;;;;5071563;28;20135;-76
2021/04/30 12:13:38;;;;;;;16.50;14.07;;;13.30;76.70;;;;;;5071730;28;20115;-75
2021/04/30 12:16:12;;;;;;;16.02;14.02;;;13.30;76.40;;;;;;5072138;28;20487;-74
2021/04/30 12:18:38;;;;;;;17.20;13.48;;;13.30;76.40;;;;;;5071911;28;20031;-75
2021/04/30 12:21:04;;;;;;;25.58;19.92;;;13.40;76.20;;;;;;5072913;28;20024;-75
2021/04/30 12:23:30;;;;;;;19.13;15.88;;;13.40;76.40;;;;;;5071498;28;20043;-75
2021/04/30 12:25:55;;;;;;;16.90;14.10;;;13.50;76.40;;;;;;5071417;28;20061;-75
2021/04/30 12:28:34;;;;;;;15.80;12.88;;;13.60;76.20;;;;;;5070934;28;20017;-74
2021/04/30 12:31:06;;;;;;;19.00;14.00;;;13.60;76.00;;;;;;5072659;28;20456;-75
2021/04/30 12:33:49;;;;;;;15.25;13.25;;;13.70;76.00;;;;;;5071300;28;20037;-75
2021/04/30 12:36:20;;;;;;;16.70;12.68;;;13.90;75.80;;;;;;5073053;28;20369;-75
2021/04/30 12:38:47;;;;;;;14.52;12.95;;;14.00;75.60;;;;;;5071360;28;20033;-75
2021/04/30 12:41:23;;;;;;;15.30;11.82;;;14.20;75.30;;;;;;5071327;28;20043;-75
2021/04/30 12:43:55;;;;;;;14.00;11.80;;;14.50;74.80;;;;;;5072622;28;20086;-75